sensor_id;sensor_type;location;lat;lon;timestamp;pressure;altitude;pressure_sealevel;temperature;humidity
53916;BME280;39827;49.652;18.770;2023-08-08T00:00:25;73542.41;;;-149.71;87.66
53916;BME280;39827;49.652;18.770;2023-08-08T00:02:51;73538.38;;;-149.71;86.92
53916;BME280;39827;49.652;18.770;2023-08-08T00:05:16;73536.38;;;-149.71;86.45
53916;BME280;39827;49.652;18.770;2023-08-08T00:07:41;73558.47;;;-149.71;85.80
53916;BME280;39827;49.652;18.770;2023-08-08T00:10:07;73564.50;;;-149.71;85.40
53916;BME280;39827;49.652;18.770;2023-08-08T00:12:33;73584.59;;;-149.71;84.17
53916;BME280;39827;49.652;18.770;2023-08-08T00:14:59;73578.56;;;-149.71;85.03
53916;BME280;39827;49.652;18.770;2023-08-08T00:17:24;73572.53;;;-149.71;83.71
53916;BME280;39827;49.652;18.770;2023-08-08T00:19:50;73584.59;;;-149.71;84.21
53916;BME280;39827;49.652;18.770;2023-08-08T00:22:15;73568.50;;;-149.71;84.09
53916;BME280;39827;49.652;18.770;2023-08-08T00:24:41;73574.53;;;-149.71;84.36
53916;BME280;39827;49.652;18.770;2023-08-08T00:27:06;73584.59;;;-149.71;85.22
53916;BME280;39827;49.652;18.770;2023-08-08T00:29:31;73584.59;;;-149.71;84.19
53916;BME280;39827;49.652;18.770;2023-08-08T00:31:57;73580.56;;;-149.71;84.66
53916;BME280;39827;49.652;18.770;2023-08-08T00:34:22;73588.59;;;-149.71;86.38
53916;BME280;39827;49.652;18.770;2023-08-08T00:36:47;73586.59;;;-149.71;84.68
53916;BME280;39827;49.652;18.770;2023-08-08T00:39:13;73588.59;;;-149.71;84.23
53916;BME280;39827;49.652;18.770;2023-08-08T00:41:38;73580.56;;;-149.71;84.82
53916;BME280;39827;49.652;18.770;2023-08-08T00:44:04;73590.63;;;-149.71;84.89
53916;BME280;39827;49.652;18.770;2023-08-08T00:46:29;73598.66;;;-149.71;86.26
53916;BME280;39827;49.652;18.770;2023-08-08T00:48:55;73600.66;;;-149.71;87.66
53916;BME280;39827;49.652;18.770;2023-08-08T00:51:21;73610.69;;;-149.71;88.15
53916;BME280;39827;49.652;18.770;2023-08-08T00:53:47;73614.72;;;-149.71;88.64
53916;BME280;39827;49.652;18.770;2023-08-08T00:56:14;73628.78;;;-149.71;89.26
53916;BME280;39827;49.652;18.770;2023-08-08T00:58:42;73636.81;;;-149.71;89.94
53916;BME280;39827;49.652;18.770;2023-08-08T01:01:10;73628.78;;;-149.71;89.91
53916;BME280;39827;49.652;18.770;2023-08-08T01:03:36;73632.78;;;-149.71;89.59
53916;BME280;39827;49.652;18.770;2023-08-08T01:06:16;73638.81;;;-149.71;89.86
53916;BME280;39827;49.652;18.770;2023-08-08T01:08:57;73646.84;;;-149.71;90.01
53916;BME280;39827;49.652;18.770;2023-08-08T01:11:23;73652.88;;;-149.71;90.14
53916;BME280;39827;49.652;18.770;2023-08-08T01:13:50;73656.91;;;-149.71;90.24
53916;BME280;39827;49.652;18.770;2023-08-08T01:16:17;73660.91;;;-149.71;90.17
53916;BME280;39827;49.652;18.770;2023-08-08T01:18:46;73670.97;;;-149.71;90.56
53916;BME280;39827;49.652;18.770;2023-08-08T01:21:14;73672.97;;;-149.71;90.82
53916;BME280;39827;49.652;18.770;2023-08-08T01:26:41;73681.00;;;-149.71;90.70
53916;BME280;39827;49.652;18.770;2023-08-08T01:29:07;73693.06;;;-149.71;91.02
53916;BME280;39827;49.652;18.770;2023-08-08T01:31:32;73693.06;;;-149.71;90.90
53916;BME280;39827;49.652;18.770;2023-08-08T01:33:58;73693.06;;;-149.71;91.01
53916;BME280;39827;49.652;18.770;2023-08-08T01:36:37;73691.06;;;-149.71;91.05
53916;BME280;39827;49.652;18.770;2023-08-08T01:39:08;73717.16;;;-149.71;91.36
53916;BME280;39827;49.652;18.770;2023-08-08T01:41:38;73725.22;;;-149.71;91.52
53916;BME280;39827;49.652;18.770;2023-08-08T01:44:05;73729.22;;;-149.71;91.69
53916;BME280;39827;49.652;18.770;2023-08-08T01:46:32;73733.25;;;-149.71;91.56
53916;BME280;39827;49.652;18.770;2023-08-08T01:48:59;73741.28;;;-149.71;91.98
53916;BME280;39827;49.652;18.770;2023-08-08T01:51:25;73749.31;;;-149.71;92.36
53916;BME280;39827;49.652;18.770;2023-08-08T01:53:51;73757.34;;;-149.71;92.46
53916;BME280;39827;49.652;18.770;2023-08-08T01:56:17;73767.38;;;-149.71;92.61
53916;BME280;39827;49.652;18.770;2023-08-08T01:58:42;73769.41;;;-149.71;92.69
53916;BME280;39827;49.652;18.770;2023-08-08T02:01:07;73767.38;;;-149.71;92.73
53916;BME280;39827;49.652;18.770;2023-08-08T02:03:33;73765.38;;;-149.71;92.57
53916;BME280;39827;49.652;18.770;2023-08-08T02:05:58;73763.38;;;-149.71;92.40
53916;BME280;39827;49.652;18.770;2023-08-08T02:08:24;73793.50;;;-149.71;93.35
53916;BME280;39827;49.652;18.770;2023-08-08T02:10:49;73787.47;;;-149.71;93.29
53916;BME280;39827;49.652;18.770;2023-08-08T02:13:14;73769.41;;;-149.71;93.10
53916;BME280;39827;49.652;18.770;2023-08-08T02:15:40;73789.50;;;-149.71;93.13
53916;BME280;39827;49.652;18.770;2023-08-08T02:18:05;73789.50;;;-149.71;93.32
53916;BME280;39827;49.652;18.770;2023-08-08T02:20:31;73789.50;;;-149.71;93.20
53916;BME280;39827;49.652;18.770;2023-08-08T02:22:56;73781.47;;;-149.71;92.93
53916;BME280;39827;49.652;18.770;2023-08-08T02:25:21;73771.41;;;-149.71;92.41
53916;BME280;39827;49.652;18.770;2023-08-08T02:27:47;73767.38;;;-149.71;92.36
53916;BME280;39827;49.652;18.770;2023-08-08T02:30:13;73773.41;;;-149.71;92.34
53916;BME280;39827;49.652;18.770;2023-08-08T02:32:38;73779.44;;;-149.71;92.32
53916;BME280;39827;49.652;18.770;2023-08-08T02:35:04;73799.53;;;-149.71;92.76
53916;BME280;39827;49.652;18.770;2023-08-08T02:37:29;73821.63;;;-149.71;93.26
53916;BME280;39827;49.652;18.770;2023-08-08T02:39:55;73801.53;;;-149.71;92.74
53916;BME280;39827;49.652;18.770;2023-08-08T02:42:20;73801.53;;;-149.71;92.63
53916;BME280;39827;49.652;18.770;2023-08-08T02:44:46;73837.69;;;-149.71;93.20
53916;BME280;39827;49.652;18.770;2023-08-08T02:47:11;73819.63;;;-149.71;92.70
53916;BME280;39827;49.652;18.770;2023-08-08T02:49:36;73821.63;;;-149.71;92.73
53916;BME280;39827;49.652;18.770;2023-08-08T02:52:02;73833.69;;;-149.71;93.03
53916;BME280;39827;49.652;18.770;2023-08-08T02:54:28;73853.78;;;-149.71;93.23
53916;BME280;39827;49.652;18.770;2023-08-08T02:56:54;73855.78;;;-149.71;93.55
53916;BME280;39827;49.652;18.770;2023-08-08T02:59:19;73835.69;;;-149.71;92.76
53916;BME280;39827;49.652;18.770;2023-08-08T03:01:46;73845.75;;;-149.71;92.87
53916;BME280;39827;49.652;18.770;2023-08-08T03:04:12;73853.78;;;-149.71;92.87
53916;BME280;39827;49.652;18.770;2023-08-08T03:06:38;73851.75;;;-149.71;92.76
53916;BME280;39827;49.652;18.770;2023-08-08T03:09:03;73855.78;;;-149.71;92.74
53916;BME280;39827;49.652;18.770;2023-08-08T03:11:28;73849.75;;;-149.71;92.45
53916;BME280;39827;49.652;18.770;2023-08-08T03:13:54;73867.84;;;-149.71;92.82
53916;BME280;39827;49.652;18.770;2023-08-08T03:16:19;73893.94;;;-149.71;93.52
53916;BME280;39827;49.652;18.770;2023-08-08T03:18:45;73893.94;;;-149.71;93.48
53916;BME280;39827;49.652;18.770;2023-08-08T03:21:11;73912.03;;;-149.71;93.83
53916;BME280;39827;49.652;18.770;2023-08-08T03:23:36;73926.09;;;-149.71;94.35
53916;BME280;39827;49.652;18.770;2023-08-08T03:26:01;73922.06;;;-149.71;94.39
53916;BME280;39827;49.652;18.770;2023-08-08T03:28:27;73928.09;;;-149.71;94.22
53916;BME280;39827;49.652;18.770;2023-08-08T03:30:52;73920.06;;;-149.71;93.58
53916;BME280;39827;49.652;18.770;2023-08-08T03:33:18;73934.13;;;-149.71;94.04
53916;BME280;39827;49.652;18.770;2023-08-08T03:35:43;73930.13;;;-149.71;93.95
53916;BME280;39827;49.652;18.770;2023-08-08T03:38:09;73934.13;;;-149.71;93.63
53916;BME280;39827;49.652;18.770;2023-08-08T03:40:34;73946.19;;;-149.71;93.77
53916;BME280;39827;49.652;18.770;2023-08-08T03:43:00;73960.25;;;-149.71;94.01
53916;BME280;39827;49.652;18.770;2023-08-08T03:45:25;73970.28;;;-149.71;94.32
53916;BME280;39827;49.652;18.770;2023-08-08T03:47:50;73942.16;;;-149.71;94.14
53916;BME280;39827;49.652;18.770;2023-08-08T03:50:16;73934.13;;;-149.71;93.88
53916;BME280;39827;49.652;18.770;2023-08-08T03:52:41;73928.09;;;-149.71;93.45
53916;BME280;39827;49.652;18.770;2023-08-08T03:55:07;73914.03;;;-149.71;93.46
53916;BME280;39827;49.652;18.770;2023-08-08T03:57:32;73934.13;;;-149.71;93.97
53916;BME280;39827;49.652;18.770;2023-08-08T03:59:57;73942.16;;;-149.71;93.95
53916;BME280;39827;49.652;18.770;2023-08-08T04:02:24;73918.06;;;-149.71;93.57
53916;BME280;39827;49.652;18.770;2023-08-08T04:04:50;73910.03;;;-149.71;93.51
53916;BME280;39827;49.652;18.770;2023-08-08T04:07:15;73889.94;;;-149.71;93.06
53916;BME280;39827;49.652;18.770;2023-08-08T04:09:40;73893.94;;;-149.71;92.77
53916;BME280;39827;49.652;18.770;2023-08-08T04:12:07;73879.88;;;-149.71;92.42
53916;BME280;39827;49.652;18.770;2023-08-08T04:14:33;73857.78;;;-149.71;91.43
53916;BME280;39827;49.652;18.770;2023-08-08T04:16:59;73855.78;;;-149.71;91.58
53916;BME280;39827;49.652;18.770;2023-08-08T04:19:24;73869.84;;;-149.71;91.61
53916;BME280;39827;49.652;18.770;2023-08-08T04:21:50;73873.88;;;-149.71;91.47
53916;BME280;39827;49.652;18.770;2023-08-08T04:24:15;73861.81;;;-149.71;91.14
53916;BME280;39827;49.652;18.770;2023-08-08T04:26:40;73877.88;;;-149.71;91.74
53916;BME280;39827;49.652;18.770;2023-08-08T04:29:06;73873.88;;;-149.71;91.98
53916;BME280;39827;49.652;18.770;2023-08-08T04:31:31;73881.91;;;-149.71;92.16
53916;BME280;39827;49.652;18.770;2023-08-08T04:33:57;73887.94;;;-149.71;92.84
53916;BME280;39827;49.652;18.770;2023-08-08T04:36:28;73847.75;;;-149.71;91.72
53916;BME280;39827;49.652;18.770;2023-08-08T04:38:54;73839.72;;;-149.71;91.64
53916;BME280;39827;49.652;18.770;2023-08-08T04:41:20;73837.69;;;-149.71;91.32
53916;BME280;39827;49.652;18.770;2023-08-08T04:43:45;73833.69;;;-149.71;91.38
53916;BME280;39827;49.652;18.770;2023-08-08T04:46:10;73841.72;;;-149.71;90.97
53916;BME280;39827;49.652;18.770;2023-08-08T04:48:36;73821.63;;;-149.71;90.48
53916;BME280;39827;49.652;18.770;2023-08-08T04:51:04;73809.56;;;-149.71;90.01
53916;BME280;39827;49.652;18.770;2023-08-08T04:53:30;73795.50;;;-149.71;89.97
53916;BME280;39827;49.652;18.770;2023-08-08T04:55:55;73823.63;;;-149.71;89.90
53916;BME280;39827;49.652;18.770;2023-08-08T04:58:20;73809.56;;;-149.71;89.73
53916;BME280;39827;49.652;18.770;2023-08-08T05:00:46;73785.47;;;-149.71;90.28
53916;BME280;39827;49.652;18.770;2023-08-08T05:03:11;73763.38;;;-149.71;88.92
53916;BME280;39827;49.652;18.770;2023-08-08T05:05:37;73757.34;;;-149.71;88.89
53916;BME280;39827;49.652;18.770;2023-08-08T05:08:02;73759.34;;;-149.71;88.87
53916;BME280;39827;49.652;18.770;2023-08-08T05:10:28;73781.47;;;-149.71;89.48
53916;BME280;39827;49.652;18.770;2023-08-08T05:12:54;73789.50;;;-149.71;89.14
53916;BME280;39827;49.652;18.770;2023-08-08T05:15:20;73761.38;;;-149.71;88.92
53916;BME280;39827;49.652;18.770;2023-08-08T05:17:45;73731.22;;;-149.71;86.98
53916;BME280;39827;49.652;18.770;2023-08-08T05:20:11;73699.09;;;-149.71;87.25
53916;BME280;39827;49.652;18.770;2023-08-08T05:22:37;73672.97;;;-149.71;86.93
53916;BME280;39827;49.652;18.770;2023-08-08T05:25:02;73652.88;;;-149.71;86.96
53916;BME280;39827;49.652;18.770;2023-08-08T05:27:28;73628.78;;;-149.71;86.62
53916;BME280;39827;49.652;18.770;2023-08-08T05:29:53;73570.53;;;-149.71;84.34
53916;BME280;39827;49.652;18.770;2023-08-08T05:32:19;73558.47;;;-149.71;82.79
53916;BME280;39827;49.652;18.770;2023-08-08T05:34:44;73538.38;;;-149.71;80.32
53916;BME280;39827;49.652;18.770;2023-08-08T05:37:09;73490.19;;;-149.71;79.18
53916;BME280;39827;49.652;18.770;2023-08-08T05:39:35;73456.03;;;-149.71;77.70
53916;BME280;39827;49.652;18.770;2023-08-08T05:42:00;73367.63;;;-149.71;74.49
53916;BME280;39827;49.652;18.770;2023-08-08T05:44:25;73365.63;;;-149.71;70.41
53916;BME280;39827;49.652;18.770;2023-08-08T05:46:51;73383.72;;;-149.71;68.78
53916;BME280;39827;49.652;18.770;2023-08-08T05:49:17;73379.69;;;-149.71;66.80
53916;BME280;39827;49.652;18.770;2023-08-08T05:51:42;73381.69;;;-149.71;69.55
53916;BME280;39827;49.652;18.770;2023-08-08T05:54:08;73299.34;;;-149.71;68.90
53916;BME280;39827;49.652;18.770;2023-08-08T05:56:36;73202.94;;;-149.71;62.86
53916;BME280;39827;49.652;18.770;2023-08-08T05:59:02;73243.09;;;-149.71;60.77
53916;BME280;39827;49.652;18.770;2023-08-08T06:01:28;73305.38;;;-149.71;61.92
53916;BME280;39827;49.652;18.770;2023-08-08T06:03:54;73217.00;;;-149.71;58.90
53916;BME280;39827;49.652;18.770;2023-08-08T06:06:19;73152.72;;;-149.71;58.50
53916;BME280;39827;49.652;18.770;2023-08-08T06:08:45;73110.53;;;-149.71;58.73
53916;BME280;39827;49.652;18.770;2023-08-08T06:11:10;73098.50;;;-149.71;53.21
53916;BME280;39827;49.652;18.770;2023-08-08T06:13:36;73122.59;;;-149.71;54.04
53916;BME280;39827;49.652;18.770;2023-08-08T06:16:01;73074.38;;;-149.71;53.97
53916;BME280;39827;49.652;18.770;2023-08-08T06:18:32;73046.25;;;-149.71;54.17
53916;BME280;39827;49.652;18.770;2023-08-08T06:20:57;73056.31;;;-149.71;51.65
53916;BME280;39827;49.652;18.770;2023-08-08T06:23:23;73028.19;;;-149.71;51.79
53916;BME280;39827;49.652;18.770;2023-08-08T06:25:48;73008.09;;;-149.71;49.39
53916;BME280;39827;49.652;18.770;2023-08-08T06:28:13;72965.94;;;-149.71;49.36
53916;BME280;39827;49.652;18.770;2023-08-08T06:30:39;72951.88;;;-149.71;48.83
53916;BME280;39827;49.652;18.770;2023-08-08T06:33:04;72911.69;;;-149.71;52.01
53916;BME280;39827;49.652;18.770;2023-08-08T06:35:30;72901.66;;;-149.71;48.51
53916;BME280;39827;49.652;18.770;2023-08-08T06:37:55;72939.81;;;-149.71;47.95
53916;BME280;39827;49.652;18.770;2023-08-08T06:40:21;72861.47;;;-149.71;47.74
53916;BME280;39827;49.652;18.770;2023-08-08T06:42:47;72867.50;;;-149.71;47.82
53916;BME280;39827;49.652;18.770;2023-08-08T06:45:12;72885.59;;;-149.71;45.75
53916;BME280;39827;49.652;18.770;2023-08-08T06:47:38;72955.88;;;-149.71;45.65
53916;BME280;39827;49.652;18.770;2023-08-08T06:50:03;72969.94;;;-149.71;47.84
53916;BME280;39827;49.652;18.770;2023-08-08T06:52:30;72911.69;;;-149.71;46.05
53916;BME280;39827;49.652;18.770;2023-08-08T06:54:55;72797.22;;;-149.71;44.87
53916;BME280;39827;49.652;18.770;2023-08-08T06:57:21;72773.13;;;-149.71;43.02
53916;BME280;39827;49.652;18.770;2023-08-08T06:59:46;72771.09;;;-149.71;43.70
53916;BME280;39827;49.652;18.770;2023-08-08T07:02:16;72751.03;;;-149.71;43.70
53916;BME280;39827;49.652;18.770;2023-08-08T07:04:42;72801.22;;;-149.71;44.39
53916;BME280;39827;49.652;18.770;2023-08-08T07:07:07;72771.09;;;-149.71;44.60
53916;BME280;39827;49.652;18.770;2023-08-08T07:09:32;72777.13;;;-149.71;45.14
53916;BME280;39827;49.652;18.770;2023-08-08T07:11:58;72771.09;;;-149.71;44.82
53916;BME280;39827;49.652;18.770;2023-08-08T07:14:24;72777.13;;;-149.71;44.91
53916;BME280;39827;49.652;18.770;2023-08-08T07:16:49;72745.00;;;-149.71;43.12
53916;BME280;39827;49.652;18.770;2023-08-08T07:19:15;72811.28;;;-149.71;42.82
53916;BME280;39827;49.652;18.770;2023-08-08T07:21:41;72743.00;;;-149.71;41.30
53916;BME280;39827;49.652;18.770;2023-08-08T07:24:06;72781.16;;;-149.71;42.22
53916;BME280;39827;49.652;18.770;2023-08-08T07:26:32;72771.09;;;-149.71;43.67
53916;BME280;39827;49.652;18.770;2023-08-08T07:28:57;72724.91;;;-149.71;38.82
53916;BME280;39827;49.652;18.770;2023-08-08T07:31:23;72652.63;;;-149.71;40.24
53916;BME280;39827;49.652;18.770;2023-08-08T07:33:48;72610.44;;;-149.71;39.49
53916;BME280;39827;49.652;18.770;2023-08-08T07:36:13;72562.25;;;-149.71;39.44
53916;BME280;39827;49.652;18.770;2023-08-08T07:38:39;72610.44;;;-149.71;38.33
53916;BME280;39827;49.652;18.770;2023-08-08T07:41:05;72698.81;;;-149.71;39.52
53916;BME280;39827;49.652;18.770;2023-08-08T07:43:30;72743.00;;;-149.71;40.86
53916;BME280;39827;49.652;18.770;2023-08-08T07:45:56;72797.22;;;-149.71;42.00
53916;BME280;39827;49.652;18.770;2023-08-08T07:48:21;72779.13;;;-149.71;41.56
53916;BME280;39827;49.652;18.770;2023-08-08T07:50:47;72839.38;;;-149.71;41.26
53916;BME280;39827;49.652;18.770;2023-08-08T07:53:12;72797.22;;;-149.71;41.12
53916;BME280;39827;49.652;18.770;2023-08-08T07:55:37;72823.31;;;-149.71;41.54
53916;BME280;39827;49.652;18.770;2023-08-08T07:58:03;72863.50;;;-149.71;41.30
53916;BME280;39827;49.652;18.770;2023-08-08T08:00:28;72883.56;;;-149.71;42.51
53916;BME280;39827;49.652;18.770;2023-08-08T08:02:54;72879.56;;;-149.71;43.30
53916;BME280;39827;49.652;18.770;2023-08-08T08:05:19;72901.66;;;-149.71;41.93
53916;BME280;39827;49.652;18.770;2023-08-08T08:07:45;72911.69;;;-149.71;44.68
53916;BME280;39827;49.652;18.770;2023-08-08T08:10:11;72925.75;;;-149.71;46.09
53916;BME280;39827;49.652;18.770;2023-08-08T08:12:39;72992.03;;;-149.71;44.89
53916;BME280;39827;49.652;18.770;2023-08-08T08:15:05;73028.19;;;-149.71;47.06
53916;BME280;39827;49.652;18.770;2023-08-08T08:17:31;73070.38;;;-149.71;48.01
53916;BME280;39827;49.652;18.770;2023-08-08T08:19:56;73080.41;;;-149.71;46.95
53916;BME280;39827;49.652;18.770;2023-08-08T08:22:22;73098.50;;;-149.71;47.74
53916;BME280;39827;49.652;18.770;2023-08-08T08:24:47;73098.50;;;-149.71;49.08
53916;BME280;39827;49.652;18.770;2023-08-08T08:27:13;73084.44;;;-149.71;49.33
53916;BME280;39827;49.652;18.770;2023-08-08T08:29:39;73086.44;;;-149.71;48.02
53916;BME280;39827;49.652;18.770;2023-08-08T08:32:04;73074.38;;;-149.71;49.58
53916;BME280;39827;49.652;18.770;2023-08-08T08:34:30;73046.25;;;-149.71;48.94
53916;BME280;39827;49.652;18.770;2023-08-08T08:36:55;73032.22;;;-149.71;50.10
53916;BME280;39827;49.652;18.770;2023-08-08T08:39:21;73032.22;;;-149.71;51.01
53916;BME280;39827;49.652;18.770;2023-08-08T08:41:54;73038.22;;;-149.71;48.62
53916;BME280;39827;49.652;18.770;2023-08-08T08:44:21;73032.22;;;-149.71;50.35
53916;BME280;39827;49.652;18.770;2023-08-08T08:46:47;73028.19;;;-149.71;49.06
53916;BME280;39827;49.652;18.770;2023-08-08T08:49:17;73016.13;;;-149.71;50.07
53916;BME280;39827;49.652;18.770;2023-08-08T08:51:44;72977.97;;;-149.71;48.29
53916;BME280;39827;49.652;18.770;2023-08-08T08:54:10;72915.72;;;-149.71;48.96
53916;BME280;39827;49.652;18.770;2023-08-08T08:56:35;72947.84;;;-149.71;48.16
53916;BME280;39827;49.652;18.770;2023-08-08T08:59:01;72994.03;;;-149.71;46.82
53916;BME280;39827;49.652;18.770;2023-08-08T09:01:27;73060.31;;;-149.71;47.74
53916;BME280;39827;49.652;18.770;2023-08-08T09:03:53;73056.31;;;-149.71;48.53
53916;BME280;39827;49.652;18.770;2023-08-08T09:06:19;73068.34;;;-149.71;49.77
53916;BME280;39827;49.652;18.770;2023-08-08T09:08:46;73094.47;;;-149.71;49.60
53916;BME280;39827;49.652;18.770;2023-08-08T09:11:12;73210.97;;;-149.71;49.66
53916;BME280;39827;49.652;18.770;2023-08-08T09:13:38;73180.84;;;-149.71;51.72
53916;BME280;39827;49.652;18.770;2023-08-08T09:16:06;73094.47;;;-149.71;49.77
53916;BME280;39827;49.652;18.770;2023-08-08T09:18:32;72994.03;;;-149.71;49.17
53916;BME280;39827;49.652;18.770;2023-08-08T09:20:58;72967.94;;;-149.71;49.13
53916;BME280;39827;49.652;18.770;2023-08-08T09:23:23;72921.75;;;-149.71;48.94
53916;BME280;39827;49.652;18.770;2023-08-08T09:25:49;72913.69;;;-149.71;46.53
53916;BME280;39827;49.652;18.770;2023-08-08T09:28:15;72973.97;;;-149.71;47.85
53916;BME280;39827;49.652;18.770;2023-08-08T09:30:41;72893.63;;;-149.71;47.29
53916;BME280;39827;49.652;18.770;2023-08-08T09:33:07;72951.88;;;-149.71;49.08
53916;BME280;39827;49.652;18.770;2023-08-08T09:35:32;73094.47;;;-149.71;48.16
53916;BME280;39827;49.652;18.770;2023-08-08T09:37:58;73116.56;;;-149.71;50.16
53916;BME280;39827;49.652;18.770;2023-08-08T09:40:24;73110.53;;;-149.71;50.35
53916;BME280;39827;49.652;18.770;2023-08-08T09:42:53;73166.78;;;-149.71;50.38
53916;BME280;39827;49.652;18.770;2023-08-08T09:45:19;73134.63;;;-149.71;54.34
53916;BME280;39827;49.652;18.770;2023-08-08T09:47:45;73158.75;;;-149.71;51.47
53916;BME280;39827;49.652;18.770;2023-08-08T09:50:11;73102.50;;;-149.71;53.35
53916;BME280;39827;49.652;18.770;2023-08-08T09:52:37;73108.53;;;-149.71;55.06
53916;BME280;39827;49.652;18.770;2023-08-08T09:55:04;73098.50;;;-149.71;54.22
53916;BME280;39827;49.652;18.770;2023-08-08T09:57:30;73096.47;;;-149.71;55.44
53916;BME280;39827;49.652;18.770;2023-08-08T09:59:55;73088.44;;;-149.71;50.61
53916;BME280;39827;49.652;18.770;2023-08-08T10:02:21;73166.78;;;-149.71;51.60
53916;BME280;39827;49.652;18.770;2023-08-08T10:04:47;73134.63;;;-149.71;51.19
53916;BME280;39827;49.652;18.770;2023-08-08T10:07:13;73120.59;;;-149.71;51.52
53916;BME280;39827;49.652;18.770;2023-08-08T10:09:39;73122.59;;;-149.71;52.70
53916;BME280;39827;49.652;18.770;2023-08-08T10:12:06;73096.47;;;-149.71;51.76
53916;BME280;39827;49.652;18.770;2023-08-08T10:14:35;73082.41;;;-149.71;49.65
53916;BME280;39827;49.652;18.770;2023-08-08T10:17:05;73134.63;;;-149.71;49.49
53916;BME280;39827;49.652;18.770;2023-08-08T10:19:31;73124.59;;;-149.71;48.86
53916;BME280;39827;49.652;18.770;2023-08-08T10:22:03;73094.47;;;-149.71;48.11
53916;BME280;39827;49.652;18.770;2023-08-08T10:24:36;73110.53;;;-149.71;46.54
53916;BME280;39827;49.652;18.770;2023-08-08T10:27:03;73102.50;;;-149.71;45.89
53916;BME280;39827;49.652;18.770;2023-08-08T10:29:31;72990.03;;;-149.71;45.59
53916;BME280;39827;49.652;18.770;2023-08-08T10:32:02;73034.22;;;-149.71;47.74
53916;BME280;39827;49.652;18.770;2023-08-08T10:34:38;73042.25;;;-149.71;47.86
53916;BME280;39827;49.652;18.770;2023-08-08T10:37:14;73024.16;;;-149.71;48.24
53916;BME280;39827;49.652;18.770;2023-08-08T10:39:59;72738.97;;;-149.71;45.89
53916;BME280;39827;49.652;18.770;2023-08-08T10:42:27;72775.13;;;-149.71;43.65
53916;BME280;39827;49.652;18.770;2023-08-08T10:44:54;72845.41;;;-149.71;44.37
53916;BME280;39827;49.652;18.770;2023-08-08T10:47:36;72957.88;;;-149.71;44.33
53916;BME280;39827;49.652;18.770;2023-08-08T10:50:13;72751.03;;;-149.71;42.92
53916;BME280;39827;49.652;18.770;2023-08-08T10:55:26;72628.50;;;-149.71;41.63
53916;BME280;39827;49.652;18.770;2023-08-08T10:58:07;72644.56;;;-149.71;39.30
53916;BME280;39827;49.652;18.770;2023-08-08T11:00:34;72544.16;;;-149.71;40.23
53916;BME280;39827;49.652;18.770;2023-08-08T11:03:01;72572.28;;;-149.71;39.53
53916;BME280;39827;49.652;18.770;2023-08-08T11:05:29;72628.50;;;-149.71;37.93
53916;BME280;39827;49.652;18.770;2023-08-08T11:07:55;72674.72;;;-149.71;38.39
53916;BME280;39827;49.652;18.770;2023-08-08T11:10:21;72652.63;;;-149.71;37.99
53916;BME280;39827;49.652;18.770;2023-08-08T11:13:01;72763.06;;;-149.71;40.65
53916;BME280;39827;49.652;18.770;2023-08-08T11:15:28;72618.47;;;-149.71;39.19
53916;BME280;39827;49.652;18.770;2023-08-08T11:17:58;72487.94;;;-149.71;38.32
53916;BME280;39827;49.652;18.770;2023-08-08T11:20:24;72437.72;;;-149.71;35.56
53916;BME280;39827;49.652;18.770;2023-08-08T11:22:55;72493.97;;;-149.71;34.89
53916;BME280;39827;49.652;18.770;2023-08-08T11:25:28;72483.91;;;-149.71;35.12
53916;BME280;39827;49.652;18.770;2023-08-08T11:27:55;72600.41;;;-149.71;35.28
53916;BME280;39827;49.652;18.770;2023-08-08T11:30:21;72662.66;;;-149.71;37.36
53916;BME280;39827;49.652;18.770;2023-08-08T11:32:48;72749.00;;;-149.71;38.31
53916;BME280;39827;49.652;18.770;2023-08-08T11:35:18;72726.91;;;-149.71;39.20
53916;BME280;39827;49.652;18.770;2023-08-08T11:37:46;72696.78;;;-149.71;36.28
53916;BME280;39827;49.652;18.770;2023-08-08T11:40:13;72704.84;;;-149.71;40.99
53916;BME280;39827;49.652;18.770;2023-08-08T11:42:39;72664.66;;;-149.71;38.07
53916;BME280;39827;49.652;18.770;2023-08-08T11:45:07;72594.38;;;-149.71;37.64
53916;BME280;39827;49.652;18.770;2023-08-08T11:47:34;72694.78;;;-149.71;36.54
53916;BME280;39827;49.652;18.770;2023-08-08T11:50:03;72680.72;;;-149.71;36.31
53916;BME280;39827;49.652;18.770;2023-08-08T11:52:29;72696.78;;;-149.71;37.01
53916;BME280;39827;49.652;18.770;2023-08-08T11:55:00;72704.84;;;-149.71;39.33
53916;BME280;39827;49.652;18.770;2023-08-08T11:57:26;72718.88;;;-149.71;37.87
53916;BME280;39827;49.652;18.770;2023-08-08T11:59:56;72734.94;;;-149.71;39.89
53916;BME280;39827;49.652;18.770;2023-08-08T12:02:23;72779.13;;;-149.71;39.89
53916;BME280;39827;49.652;18.770;2023-08-08T12:04:48;72843.41;;;-149.71;40.77
53916;BME280;39827;49.652;18.770;2023-08-08T12:07:14;72877.56;;;-149.71;40.09
53916;BME280;39827;49.652;18.770;2023-08-08T12:09:41;72951.88;;;-149.71;41.59
53916;BME280;39827;49.652;18.770;2023-08-08T12:12:08;72973.97;;;-149.71;41.08
53916;BME280;39827;49.652;18.770;2023-08-08T12:14:42;73004.09;;;-149.71;42.79
53916;BME280;39827;49.652;18.770;2023-08-08T12:17:08;73044.25;;;-149.71;43.33
53916;BME280;39827;49.652;18.770;2023-08-08T12:19:34;73066.34;;;-149.71;45.04
53916;BME280;39827;49.652;18.770;2023-08-08T12:21:59;73090.44;;;-149.71;45.72
53916;BME280;39827;49.652;18.770;2023-08-08T12:24:25;73136.66;;;-149.71;44.77
53916;BME280;39827;49.652;18.770;2023-08-08T12:26:50;73142.69;;;-149.71;45.57
53916;BME280;39827;49.652;18.770;2023-08-08T12:29:15;73130.63;;;-149.71;46.48
53916;BME280;39827;49.652;18.770;2023-08-08T12:31:41;73120.59;;;-149.71;45.17